Stephen Creek, Texas
Current Conditions -  °F | °C
As of 3:55 PM on Monday 22 Dec 2014 (Local Time) from K6R3 Reporting Station
Clear Clear  
Wind Chill: 68°   Ceiling: Unl
Heat Index: 68°   Visibility: 7mi
Dew Point: 61°   Wind: 6mph
Humidity: 77%   Direction: 220°SW
Pressure: 29.62"   Gusts: NA
Location:  30.5835°N, 95.1294°W
Report Text: K6R3 222155Z AUTO 22005KT 7SM CLR 20/16 A2962 RMK AO2 T02020160
Loading
Personal Weather Stations






























Interactive Weather Map New forecast layout! Learn more

10-Day Weather Forecast

Advertisements
Track Severe Weather on mobile